sensor_id;sensor_type;location;lat;lon;timestamp;pressure;altitude;pressure_sealevel;temperature;humidity
10008;BME280;5043;41.766;26.204;2024-02-26T00:00:59;100705.03;;;10.61;94.74
10008;BME280;5043;41.766;26.204;2024-02-26T00:03:24;100708.53;;;10.85;94.65
10008;BME280;5043;41.766;26.204;2024-02-26T00:05:50;100709.47;;;10.84;94.00
10008;BME280;5043;41.766;26.204;2024-02-26T00:08:15;100699.03;;;10.82;93.51
10008;BME280;5043;41.766;26.204;2024-02-26T00:10:41;100709.28;;;10.74;93.72
10008;BME280;5043;41.766;26.204;2024-02-26T00:13:07;100730.41;;;10.74;93.34
10008;BME280;5043;41.766;26.204;2024-02-26T00:15:32;100649.19;;;10.43;93.70
10008;BME280;5043;41.766;26.204;2024-02-26T00:18:00;100675.94;;;10.50;93.75
10008;BME280;5043;41.766;26.204;2024-02-26T00:20:26;100730.84;;;10.68;93.42
10008;BME280;5043;41.766;26.204;2024-02-26T00:22:51;100682.22;;;10.60;93.63
10008;BME280;5043;41.766;26.204;2024-02-26T00:25:17;100688.25;;;10.62;93.28
10008;BME280;5043;41.766;26.204;2024-02-26T00:27:42;100672.31;;;10.63;93.17
10008;BME280;5043;41.766;26.204;2024-02-26T00:30:09;100673.56;;;10.58;93.10
10008;BME280;5043;41.766;26.204;2024-02-26T00:32:35;100688.09;;;10.76;93.04
10008;BME280;5043;41.766;26.204;2024-02-26T00:35:00;100682.91;;;10.74;93.13
10008;BME280;5043;41.766;26.204;2024-02-26T00:37:26;100676.00;;;10.61;92.82
10008;BME280;5043;41.766;26.204;2024-02-26T00:39:51;100683.75;;;10.75;92.40
10008;BME280;5043;41.766;26.204;2024-02-26T00:42:18;100692.41;;;10.77;92.39
10008;BME280;5043;41.766;26.204;2024-02-26T00:44:43;100679.41;;;10.74;92.59
10008;BME280;5043;41.766;26.204;2024-02-26T00:47:09;100673.94;;;10.77;92.70
10008;BME280;5043;41.766;26.204;2024-02-26T00:49:34;100673.53;;;10.70;92.50
10008;BME280;5043;41.766;26.204;2024-02-26T00:52:00;100673.66;;;10.69;92.90
10008;BME280;5043;41.766;26.204;2024-02-26T00:54:25;100669.63;;;10.76;92.72
10008;BME280;5043;41.766;26.204;2024-02-26T00:56:50;100658.78;;;10.68;92.36
10008;BME280;5043;41.766;26.204;2024-02-26T00:59:16;100661.94;;;10.73;92.99
10008;BME280;5043;41.766;26.204;2024-02-26T01:01:41;100642.94;;;10.68;93.15
10008;BME280;5043;41.766;26.204;2024-02-26T01:04:07;100663.75;;;10.83;92.47
10008;BME280;5043;41.766;26.204;2024-02-26T01:06:32;100656.09;;;10.80;92.57
10008;BME280;5043;41.766;26.204;2024-02-26T01:08:57;100660.66;;;10.78;92.17
10008;BME280;5043;41.766;26.204;2024-02-26T01:11:23;100627.97;;;10.68;92.18
10008;BME280;5043;41.766;26.204;2024-02-26T01:13:49;100652.81;;;10.77;92.41
10008;BME280;5043;41.766;26.204;2024-02-26T01:16:18;100631.78;;;10.64;92.03
10008;BME280;5043;41.766;26.204;2024-02-26T01:18:44;100628.06;;;10.67;91.55
10008;BME280;5043;41.766;26.204;2024-02-26T01:21:09;100647.88;;;10.72;91.68
10008;BME280;5043;41.766;26.204;2024-02-26T01:23:34;100632.72;;;10.63;91.89
10008;BME280;5043;41.766;26.204;2024-02-26T01:26:00;100630.38;;;10.71;92.51
10008;BME280;5043;41.766;26.204;2024-02-26T01:28:25;100638.41;;;10.70;92.31
10008;BME280;5043;41.766;26.204;2024-02-26T01:30:51;100640.94;;;10.71;92.45
10008;BME280;5043;41.766;26.204;2024-02-26T01:33:16;100605.25;;;10.55;93.09
10008;BME280;5043;41.766;26.204;2024-02-26T01:35:42;100640.81;;;10.73;93.28
10008;BME280;5043;41.766;26.204;2024-02-26T01:38:07;100638.06;;;10.74;93.48
10008;BME280;5043;41.766;26.204;2024-02-26T01:40:33;100641.03;;;10.70;93.79
10008;BME280;5043;41.766;26.204;2024-02-26T01:42:59;100601.06;;;10.63;93.56
10008;BME280;5043;41.766;26.204;2024-02-26T01:45:24;100603.34;;;10.57;93.83
10008;BME280;5043;41.766;26.204;2024-02-26T01:47:50;100636.38;;;10.73;93.78
10008;BME280;5043;41.766;26.204;2024-02-26T01:50:17;100645.47;;;10.69;93.58
10008;BME280;5043;41.766;26.204;2024-02-26T01:52:44;100634.56;;;10.74;93.46
10008;BME280;5043;41.766;26.204;2024-02-26T01:55:12;100625.19;;;10.70;93.29
10008;BME280;5043;41.766;26.204;2024-02-26T01:57:40;100627.41;;;10.76;92.97
10008;BME280;5043;41.766;26.204;2024-02-26T02:00:06;100650.66;;;10.71;93.34
10008;BME280;5043;41.766;26.204;2024-02-26T02:02:33;100626.06;;;10.70;93.41
10008;BME280;5043;41.766;26.204;2024-02-26T02:04:59;100628.56;;;10.72;92.65
10008;BME280;5043;41.766;26.204;2024-02-26T02:07:24;100588.44;;;10.56;93.13
10008;BME280;5043;41.766;26.204;2024-02-26T02:09:50;100611.66;;;10.74;93.34
10008;BME280;5043;41.766;26.204;2024-02-26T02:12:15;100614.44;;;10.73;92.88
10008;BME280;5043;41.766;26.204;2024-02-26T02:14:41;100621.63;;;10.71;92.83
10008;BME280;5043;41.766;26.204;2024-02-26T02:17:07;100639.13;;;10.72;92.99
10008;BME280;5043;41.766;26.204;2024-02-26T02:19:32;100611.56;;;10.76;92.64
10008;BME280;5043;41.766;26.204;2024-02-26T02:21:57;100596.31;;;10.68;92.74
10008;BME280;5043;41.766;26.204;2024-02-26T02:24:23;100606.78;;;10.81;91.98
10008;BME280;5043;41.766;26.204;2024-02-26T02:26:48;100594.53;;;10.69;92.27
10008;BME280;5043;41.766;26.204;2024-02-26T02:29:14;100598.06;;;10.57;93.01
10008;BME280;5043;41.766;26.204;2024-02-26T02:31:40;100598.16;;;10.55;93.62
10008;BME280;5043;41.766;26.204;2024-02-26T02:34:06;100606.47;;;10.62;93.82
10008;BME280;5043;41.766;26.204;2024-02-26T02:36:32;100604.56;;;10.64;94.28
10008;BME280;5043;41.766;26.204;2024-02-26T02:38:57;100626.09;;;10.58;94.46
10008;BME280;5043;41.766;26.204;2024-02-26T02:41:23;100573.97;;;10.38;94.69
10008;BME280;5043;41.766;26.204;2024-02-26T02:43:48;100610.00;;;10.50;95.70
10008;BME280;5043;41.766;26.204;2024-02-26T02:46:14;100596.97;;;10.35;96.21
10008;BME280;5043;41.766;26.204;2024-02-26T02:48:41;100596.59;;;10.29;96.47
10008;BME280;5043;41.766;26.204;2024-02-26T02:51:09;100597.13;;;10.21;97.33
10008;BME280;5043;41.766;26.204;2024-02-26T02:53:34;100603.81;;;10.14;98.65
10008;BME280;5043;41.766;26.204;2024-02-26T02:55:59;100607.50;;;10.12;99.70
10008;BME280;5043;41.766;26.204;2024-02-26T02:58:25;100620.97;;;10.07;100.00
10008;BME280;5043;41.766;26.204;2024-02-26T03:00:50;100607.09;;;9.93;100.00
10008;BME280;5043;41.766;26.204;2024-02-26T03:03:16;100606.47;;;9.77;100.00
10008;BME280;5043;41.766;26.204;2024-02-26T03:05:41;100612.69;;;9.76;100.00
10008;BME280;5043;41.766;26.204;2024-02-26T03:08:07;100606.59;;;9.62;100.00
10008;BME280;5043;41.766;26.204;2024-02-26T03:10:32;100619.78;;;9.62;100.00
10008;BME280;5043;41.766;26.204;2024-02-26T03:12:58;100603.75;;;9.53;100.00
10008;BME280;5043;41.766;26.204;2024-02-26T03:15:23;100585.66;;;9.48;100.00
10008;BME280;5043;41.766;26.204;2024-02-26T03:17:49;100609.75;;;9.55;100.00
10008;BME280;5043;41.766;26.204;2024-02-26T03:20:14;100609.22;;;9.50;100.00
10008;BME280;5043;41.766;26.204;2024-02-26T03:22:39;100527.53;;;9.01;100.00
10008;BME280;5043;41.766;26.204;2024-02-26T03:25:06;100595.13;;;9.38;100.00
10008;BME280;5043;41.766;26.204;2024-02-26T03:27:31;100576.06;;;9.22;100.00
10008;BME280;5043;41.766;26.204;2024-02-26T03:29:57;100531.53;;;8.94;100.00
10008;BME280;5043;41.766;26.204;2024-02-26T03:32:22;100601.34;;;9.25;100.00
10008;BME280;5043;41.766;26.204;2024-02-26T03:34:48;100577.75;;;9.11;100.00
10008;BME280;5043;41.766;26.204;2024-02-26T03:37:13;100617.00;;;9.14;100.00
10008;BME280;5043;41.766;26.204;2024-02-26T03:39:39;100563.09;;;8.81;100.00
10008;BME280;5043;41.766;26.204;2024-02-26T03:42:04;100598.16;;;9.07;100.00
10008;BME280;5043;41.766;26.204;2024-02-26T03:44:29;100622.16;;;9.03;100.00
10008;BME280;5043;41.766;26.204;2024-02-26T03:46:55;100586.47;;;8.86;100.00
10008;BME280;5043;41.766;26.204;2024-02-26T03:49:21;100611.09;;;8.97;100.00
10008;BME280;5043;41.766;26.204;2024-02-26T03:51:47;100600.44;;;8.86;100.00
10008;BME280;5043;41.766;26.204;2024-02-26T03:54:13;100599.81;;;8.83;100.00
10008;BME280;5043;41.766;26.204;2024-02-26T03:56:39;100593.81;;;8.81;100.00
10008;BME280;5043;41.766;26.204;2024-02-26T03:59:04;100590.94;;;8.71;100.00
10008;BME280;5043;41.766;26.204;2024-02-26T04:01:30;100610.81;;;8.75;100.00
10008;BME280;5043;41.766;26.204;2024-02-26T04:03:55;100573.34;;;8.59;100.00
10008;BME280;5043;41.766;26.204;2024-02-26T04:06:21;100580.06;;;8.63;100.00
10008;BME280;5043;41.766;26.204;2024-02-26T04:08:47;100585.13;;;8.66;100.00
10008;BME280;5043;41.766;26.204;2024-02-26T04:11:13;100607.44;;;8.73;100.00
10008;BME280;5043;41.766;26.204;2024-02-26T04:13:42;100594.72;;;8.67;100.00
10008;BME280;5043;41.766;26.204;2024-02-26T04:16:11;100563.06;;;8.42;100.00
10008;BME280;5043;41.766;26.204;2024-02-26T04:18:37;100591.00;;;8.57;100.00
10008;BME280;5043;41.766;26.204;2024-02-26T04:21:03;100541.34;;;8.26;100.00
10008;BME280;5043;41.766;26.204;2024-02-26T04:23:28;100582.38;;;8.55;100.00
10008;BME280;5043;41.766;26.204;2024-02-26T04:25:54;100573.09;;;8.50;100.00
10008;BME280;5043;41.766;26.204;2024-02-26T04:28:19;100579.28;;;8.49;100.00
10008;BME280;5043;41.766;26.204;2024-02-26T04:30:50;100599.00;;;8.68;100.00
10008;BME280;5043;41.766;26.204;2024-02-26T04:33:16;100592.03;;;8.55;100.00
10008;BME280;5043;41.766;26.204;2024-02-26T04:35:42;100607.50;;;8.59;100.00
10008;BME280;5043;41.766;26.204;2024-02-26T04:38:08;100583.41;;;8.53;100.00
10008;BME280;5043;41.766;26.204;2024-02-26T04:40:33;100597.84;;;8.60;100.00
10008;BME280;5043;41.766;26.204;2024-02-26T04:42:58;100599.50;;;8.48;100.00
10008;BME280;5043;41.766;26.204;2024-02-26T04:45:24;100594.97;;;8.50;100.00
10008;BME280;5043;41.766;26.204;2024-02-26T04:47:49;100592.09;;;8.41;100.00
10008;BME280;5043;41.766;26.204;2024-02-26T04:50:15;100585.25;;;8.38;100.00
10008;BME280;5043;41.766;26.204;2024-02-26T04:52:41;100582.50;;;8.40;100.00
10008;BME280;5043;41.766;26.204;2024-02-26T04:55:06;100595.16;;;8.47;100.00
10008;BME280;5043;41.766;26.204;2024-02-26T04:57:32;100571.97;;;8.27;100.00
10008;BME280;5043;41.766;26.204;2024-02-26T04:59:57;100570.53;;;8.21;100.00
10008;BME280;5043;41.766;26.204;2024-02-26T05:02:23;100599.00;;;8.42;100.00
10008;BME280;5043;41.766;26.204;2024-02-26T05:04:49;100574.00;;;8.22;100.00
10008;BME280;5043;41.766;26.204;2024-02-26T05:07:15;100599.31;;;8.37;100.00
10008;BME280;5043;41.766;26.204;2024-02-26T05:09:42;100608.16;;;8.36;100.00
10008;BME280;5043;41.766;26.204;2024-02-26T05:12:09;100596.69;;;8.23;100.00
10008;BME280;5043;41.766;26.204;2024-02-26T05:14:35;100601.22;;;8.21;100.00
10008;BME280;5043;41.766;26.204;2024-02-26T05:17:00;100611.66;;;8.22;100.00
10008;BME280;5043;41.766;26.204;2024-02-26T05:19:25;100621.78;;;8.28;100.00
10008;BME280;5043;41.766;26.204;2024-02-26T05:21:51;100607.13;;;8.24;100.00
10008;BME280;5043;41.766;26.204;2024-02-26T05:24:17;100623.94;;;8.36;100.00
10008;BME280;5043;41.766;26.204;2024-02-26T05:26:43;100613.72;;;8.32;100.00
10008;BME280;5043;41.766;26.204;2024-02-26T05:29:09;100641.94;;;8.42;100.00
10008;BME280;5043;41.766;26.204;2024-02-26T05:31:34;100585.88;;;8.01;100.00
10008;BME280;5043;41.766;26.204;2024-02-26T05:34:00;100636.47;;;8.45;100.00
10008;BME280;5043;41.766;26.204;2024-02-26T05:36:25;100631.63;;;8.39;100.00
10008;BME280;5043;41.766;26.204;2024-02-26T05:38:51;100641.94;;;8.42;100.00
10008;BME280;5043;41.766;26.204;2024-02-26T05:41:17;100634.25;;;8.39;100.00
10008;BME280;5043;41.766;26.204;2024-02-26T05:43:51;100615.19;;;8.21;100.00
10008;BME280;5043;41.766;26.204;2024-02-26T05:46:17;100644.25;;;8.47;100.00
10008;BME280;5043;41.766;26.204;2024-02-26T05:48:44;100624.31;;;8.30;100.00
10008;BME280;5043;41.766;26.204;2024-02-26T05:51:10;100635.56;;;8.46;100.00
10008;BME280;5043;41.766;26.204;2024-02-26T05:53:35;100644.22;;;8.61;100.00
10008;BME280;5043;41.766;26.204;2024-02-26T05:56:00;100645.72;;;8.65;100.00
10008;BME280;5043;41.766;26.204;2024-02-26T05:58:26;100656.13;;;8.66;100.00
10008;BME280;5043;41.766;26.204;2024-02-26T06:00:51;100656.50;;;8.74;100.00
10008;BME280;5043;41.766;26.204;2024-02-26T06:03:17;100653.75;;;8.76;100.00
10008;BME280;5043;41.766;26.204;2024-02-26T06:05:42;100658.81;;;8.79;100.00
10008;BME280;5043;41.766;26.204;2024-02-26T06:08:08;100667.63;;;8.78;100.00
10008;BME280;5043;41.766;26.204;2024-02-26T06:10:33;100656.19;;;8.79;100.00
10008;BME280;5043;41.766;26.204;2024-02-26T06:12:59;100659.63;;;8.79;100.00
10008;BME280;5043;41.766;26.204;2024-02-26T06:15:24;100640.72;;;8.74;100.00
10008;BME280;5043;41.766;26.204;2024-02-26T06:17:50;100675.78;;;8.87;100.00
10008;BME280;5043;41.766;26.204;2024-02-26T06:20:15;100665.75;;;8.80;100.00
10008;BME280;5043;41.766;26.204;2024-02-26T06:22:41;100630.56;;;8.68;100.00
10008;BME280;5043;41.766;26.204;2024-02-26T06:25:07;100655.03;;;8.83;100.00
10008;BME280;5043;41.766;26.204;2024-02-26T06:27:33;100669.59;;;8.88;100.00
10008;BME280;5043;41.766;26.204;2024-02-26T06:29:58;100606.78;;;8.57;100.00
10008;BME280;5043;41.766;26.204;2024-02-26T06:32:23;100646.41;;;8.93;100.00
10008;BME280;5043;41.766;26.204;2024-02-26T06:34:49;100662.44;;;8.90;100.00
10008;BME280;5043;41.766;26.204;2024-02-26T06:37:14;100655.09;;;8.95;100.00
10008;BME280;5043;41.766;26.204;2024-02-26T06:39:40;100656.88;;;9.08;100.00
10008;BME280;5043;41.766;26.204;2024-02-26T06:42:06;100644.47;;;9.10;100.00
10008;BME280;5043;41.766;26.204;2024-02-26T06:44:32;100644.81;;;9.18;100.00
10008;BME280;5043;41.766;26.204;2024-02-26T06:47:01;100658.22;;;9.40;100.00
10008;BME280;5043;41.766;26.204;2024-02-26T06:49:27;100658.09;;;9.41;100.00
10008;BME280;5043;41.766;26.204;2024-02-26T06:51:53;100660.53;;;9.57;100.00
10008;BME280;5043;41.766;26.204;2024-02-26T06:54:18;100661.78;;;9.64;100.00
10008;BME280;5043;41.766;26.204;2024-02-26T06:56:44;100646.97;;;9.63;100.00
10008;BME280;5043;41.766;26.204;2024-02-26T06:59:10;100660.22;;;9.74;100.00
10008;BME280;5043;41.766;26.204;2024-02-26T07:01:35;100641.47;;;9.79;100.00
10008;BME280;5043;41.766;26.204;2024-02-26T07:04:01;100663.47;;;9.90;100.00
10008;BME280;5043;41.766;26.204;2024-02-26T07:06:29;100663.16;;;9.95;100.00
10008;BME280;5043;41.766;26.204;2024-02-26T07:08:55;100659.78;;;10.05;100.00
10008;BME280;5043;41.766;26.204;2024-02-26T07:11:20;100657.03;;;10.19;100.00
10008;BME280;5043;41.766;26.204;2024-02-26T07:13:46;100660.69;;;10.29;100.00
10008;BME280;5043;41.766;26.204;2024-02-26T07:16:12;100656.84;;;10.46;100.00
10008;BME280;5043;41.766;26.204;2024-02-26T07:18:38;100655.34;;;10.55;100.00
10008;BME280;5043;41.766;26.204;2024-02-26T07:21:04;100661.72;;;10.76;100.00
10008;BME280;5043;41.766;26.204;2024-02-26T07:23:30;100636.47;;;10.72;100.00
10008;BME280;5043;41.766;26.204;2024-02-26T07:25:56;100657.84;;;10.92;100.00
10008;BME280;5043;41.766;26.204;2024-02-26T07:28:22;100655.56;;;10.99;100.00
10008;BME280;5043;41.766;26.204;2024-02-26T07:30:47;100654.16;;;11.06;100.00
10008;BME280;5043;41.766;26.204;2024-02-26T07:33:13;100656.50;;;11.33;100.00
10008;BME280;5043;41.766;26.204;2024-02-26T07:35:38;100648.13;;;11.39;100.00
10008;BME280;5043;41.766;26.204;2024-02-26T07:38:04;100656.19;;;11.48;99.19
10008;BME280;5043;41.766;26.204;2024-02-26T07:40:30;100664.19;;;11.70;99.32
10008;BME280;5043;41.766;26.204;2024-02-26T07:42:56;100661.81;;;11.79;98.75
10008;BME280;5043;41.766;26.204;2024-02-26T07:45:22;100652.91;;;11.80;98.96
10008;BME280;5043;41.766;26.204;2024-02-26T07:47:47;100630.44;;;11.85;98.74
10008;BME280;5043;41.766;26.204;2024-02-26T07:50:13;100645.69;;;12.04;98.33
10008;BME280;5043;41.766;26.204;2024-02-26T07:52:39;100643.75;;;12.17;97.07
10008;BME280;5043;41.766;26.204;2024-02-26T07:55:05;100640.88;;;12.20;96.44
10008;BME280;5043;41.766;26.204;2024-02-26T07:57:32;100645.91;;;12.34;96.49
10008;BME280;5043;41.766;26.204;2024-02-26T07:59:59;100647.00;;;12.31;96.25
10008;BME280;5043;41.766;26.204;2024-02-26T08:02:25;100650.00;;;12.27;96.39
10008;BME280;5043;41.766;26.204;2024-02-26T08:04:50;100636.31;;;12.33;96.13
10008;BME280;5043;41.766;26.204;2024-02-26T08:07:16;100654.66;;;12.46;95.60
10008;BME280;5043;41.766;26.204;2024-02-26T08:09:41;100636.50;;;12.41;95.22
10008;BME280;5043;41.766;26.204;2024-02-26T08:12:07;100631.47;;;12.38;94.78
10008;BME280;5043;41.766;26.204;2024-02-26T08:14:33;100636.28;;;12.44;94.20
10008;BME280;5043;41.766;26.204;2024-02-26T08:16:58;100648.16;;;12.61;94.25
10008;BME280;5043;41.766;26.204;2024-02-26T08:19:24;100652.34;;;12.63;93.64
10008;BME280;5043;41.766;26.204;2024-02-26T08:21:50;100643.44;;;12.64;93.25
10008;BME280;5043;41.766;26.204;2024-02-26T08:24:15;100650.69;;;12.83;93.10
10008;BME280;5043;41.766;26.204;2024-02-26T08:26:41;100638.19;;;12.85;92.20
10008;BME280;5043;41.766;26.204;2024-02-26T08:29:06;100657.72;;;13.04;91.25
10008;BME280;5043;41.766;26.204;2024-02-26T08:31:32;100644.16;;;12.98;90.92
10008;BME280;5043;41.766;26.204;2024-02-26T08:33:57;100651.19;;;13.20;90.81
10008;BME280;5043;41.766;26.204;2024-02-26T08:36:24;100656.03;;;13.35;90.12
10008;BME280;5043;41.766;26.204;2024-02-26T08:38:49;100653.63;;;13.53;89.32
10008;BME280;5043;41.766;26.204;2024-02-26T08:41:15;100643.41;;;13.48;88.81
10008;BME280;5043;41.766;26.204;2024-02-26T08:43:40;100663.84;;;13.57;88.54
10008;BME280;5043;41.766;26.204;2024-02-26T08:46:09;100670.44;;;13.63;88.17
10008;BME280;5043;41.766;26.204;2024-02-26T08:48:35;100656.34;;;13.62;88.70
10008;BME280;5043;41.766;26.204;2024-02-26T08:51:07;100668.47;;;13.86;87.83
10008;BME280;5043;41.766;26.204;2024-02-26T08:53:33;100655.53;;;13.92;87.32
10008;BME280;5043;41.766;26.204;2024-02-26T08:55:59;100659.84;;;13.93;87.23
10008;BME280;5043;41.766;26.204;2024-02-26T08:58:24;100657.22;;;13.93;87.12
10008;BME280;5043;41.766;26.204;2024-02-26T09:00:50;100656.84;;;14.07;86.74
10008;BME280;5043;41.766;26.204;2024-02-26T09:03:16;100664.56;;;14.10;86.18
10008;BME280;5043;41.766;26.204;2024-02-26T09:05:42;100644.91;;;14.22;86.20
10008;BME280;5043;41.766;26.204;2024-02-26T09:08:08;100634.69;;;14.18;85.32
10008;BME280;5043;41.766;26.204;2024-02-26T09:10:34;100654.97;;;14.28;84.58
10008;BME280;5043;41.766;26.204;2024-02-26T09:12:59;100652.47;;;14.27;84.77
10008;BME280;5043;41.766;26.204;2024-02-26T09:15:25;100650.66;;;14.27;85.71
10008;BME280;5043;41.766;26.204;2024-02-26T09:17:51;100645.34;;;14.27;86.23
10008;BME280;5043;41.766;26.204;2024-02-26T09:20:17;100652.53;;;14.36;86.05
10008;BME280;5043;41.766;26.204;2024-02-26T09:22:47;100643.28;;;14.31;86.71
10008;BME280;5043;41.766;26.204;2024-02-26T09:25:13;100649.31;;;14.42;86.90
10008;BME280;5043;41.766;26.204;2024-02-26T09:27:42;100640.41;;;14.53;86.76
10008;BME280;5043;41.766;26.204;2024-02-26T09:30:11;100640.13;;;14.66;86.07
10008;BME280;5043;41.766;26.204;2024-02-26T09:32:37;100632.59;;;14.80;85.37
10008;BME280;5043;41.766;26.204;2024-02-26T09:35:03;100632.88;;;14.87;82.65
10008;BME280;5043;41.766;26.204;2024-02-26T09:37:29;100636.81;;;15.02;81.02
10008;BME280;5043;41.766;26.204;2024-02-26T09:39:54;100634.84;;;15.23;80.42
10008;BME280;5043;41.766;26.204;2024-02-26T09:42:20;100633.97;;;15.42;78.70
10008;BME280;5043;41.766;26.204;2024-02-26T09:44:49;100648.25;;;15.60;76.47
10008;BME280;5043;41.766;26.204;2024-02-26T09:47:16;100648.03;;;15.80;75.98
10008;BME280;5043;41.766;26.204;2024-02-26T09:49:43;100649.25;;;15.96;75.42
10008;BME280;5043;41.766;26.204;2024-02-26T09:52:08;100653.00;;;16.03;75.11
10008;BME280;5043;41.766;26.204;2024-02-26T09:54:37;100663.28;;;15.88;72.41
10008;BME280;5043;41.766;26.204;2024-02-26T09:57:03;100642.84;;;15.89;72.35
10008;BME280;5043;41.766;26.204;2024-02-26T09:59:36;100656.41;;;16.22;70.68
10008;BME280;5043;41.766;26.204;2024-02-26T10:02:04;100659.59;;;16.35;69.03
10008;BME280;5043;41.766;26.204;2024-02-26T10:04:30;100658.16;;;16.41;67.99
10008;BME280;5043;41.766;26.204;2024-02-26T10:06:56;100652.84;;;16.41;68.38
10008;BME280;5043;41.766;26.204;2024-02-26T10:09:25;100655.72;;;16.47;67.87
10008;BME280;5043;41.766;26.204;2024-02-26T10:11:50;100647.88;;;16.46;66.62
10008;BME280;5043;41.766;26.204;2024-02-26T10:14:16;100644.59;;;16.62;66.36
10008;BME280;5043;41.766;26.204;2024-02-26T10:16:42;100634.34;;;16.67;65.41
10008;BME280;5043;41.766;26.204;2024-02-26T10:19:08;100641.94;;;16.79;65.01
10008;BME280;5043;41.766;26.204;2024-02-26T10:21:36;100638.34;;;16.88;62.76
10008;BME280;5043;41.766;26.204;2024-02-26T10:24:13;100630.75;;;16.93;61.61
10008;BME280;5043;41.766;26.204;2024-02-26T10:26:46;100623.75;;;16.92;62.27
10008;BME280;5043;41.766;26.204;2024-02-26T10:29:11;100628.03;;;16.85;60.42
10008;BME280;5043;41.766;26.204;2024-02-26T10:31:37;100616.13;;;16.80;61.15
10008;BME280;5043;41.766;26.204;2024-02-26T10:34:02;100618.34;;;16.84;61.08
10008;BME280;5043;41.766;26.204;2024-02-26T10:36:28;100601.97;;;16.79;59.46
10008;BME280;5043;41.766;26.204;2024-02-26T10:38:54;100607.53;;;16.86;58.87
10008;BME280;5043;41.766;26.204;2024-02-26T10:41:20;100611.97;;;16.95;59.12
10008;BME280;5043;41.766;26.204;2024-02-26T10:43:48;100619.41;;;17.09;59.23
10008;BME280;5043;41.766;26.204;2024-02-26T10:46:14;100610.78;;;17.15;59.23
10008;BME280;5043;41.766;26.204;2024-02-26T10:48:39;100617.00;;;17.24;57.21
10008;BME280;5043;41.766;26.204;2024-02-26T10:51:05;100602.97;;;17.39;56.17
10008;BME280;5043;41.766;26.204;2024-02-26T10:53:33;100599.97;;;17.60;54.75
10008;BME280;5043;41.766;26.204;2024-02-26T10:56:04;100574.53;;;17.73;53.66
10008;BME280;5043;41.766;26.204;2024-02-26T10:58:31;100588.78;;;17.90;51.76
10008;BME280;5043;41.766;26.204;2024-02-26T11:00:57;100583.25;;;18.25;51.04
10008;BME280;5043;41.766;26.204;2024-02-26T11:03:25;100586.38;;;18.63;50.18
10008;BME280;5043;41.766;26.204;2024-02-26T11:05:51;100558.00;;;18.78;48.70
10008;BME280;5043;41.766;26.204;2024-02-26T11:08:20;100560.31;;;19.21;45.40
10008;BME280;5043;41.766;26.204;2024-02-26T11:10:47;100560.63;;;19.50;43.42
10008;BME280;5043;41.766;26.204;2024-02-26T11:13:15;100550.56;;;19.99;41.15
10008;BME280;5043;41.766;26.204;2024-02-26T11:15:42;100524.13;;;20.35;39.08
10008;BME280;5043;41.766;26.204;2024-02-26T11:18:09;100510.50;;;20.67;36.45
10008;BME280;5043;41.766;26.204;2024-02-26T11:20:38;100523.56;;;21.22;35.10
10008;BME280;5043;41.766;26.204;2024-02-26T11:23:06;100521.50;;;21.61;32.47
10008;BME280;5043;41.766;26.204;2024-02-26T11:25:32;100516.75;;;21.78;32.16
10008;BME280;5043;41.766;26.204;2024-02-26T11:28:04;100516.09;;;21.76;32.16
10008;BME280;5043;41.766;26.204;2024-02-26T11:30:33;100515.47;;;21.88;32.13
10008;BME280;5043;41.766;26.204;2024-02-26T11:33:00;100514.06;;;21.78;32.27
10008;BME280;5043;41.766;26.204;2024-02-26T11:35:28;100512.56;;;21.90;32.21
10008;BME280;5043;41.766;26.204;2024-02-26T11:37:55;100522.00;;;22.15;32.03
10008;BME280;5043;41.766;26.204;2024-02-26T11:40:25;100516.13;;;22.47;31.38
10008;BME280;5043;41.766;26.204;2024-02-26T11:42:51;100506.25;;;22.69;31.16
10008;BME280;5043;41.766;26.204;2024-02-26T11:48:11;100492.25;;;23.08;30.38
10008;BME280;5043;41.766;26.204;2024-02-26T11:50:42;100501.09;;;23.23;30.19
10008;BME280;5043;41.766;26.204;2024-02-26T11:53:21;100499.31;;;23.09;29.69
10008;BME280;5043;41.766;26.204;2024-02-26T11:55:47;100498.22;;;22.76;30.38
10008;BME280;5043;41.766;26.204;2024-02-26T11:58:14;100504.34;;;22.48;30.63
10008;BME280;5043;41.766;26.204;2024-02-26T12:00:40;100497.16;;;22.55;30.58
10008;BME280;5043;41.766;26.204;2024-02-26T12:03:06;100495.66;;;22.68;30.64
10008;BME280;5043;41.766;26.204;2024-02-26T12:05:34;100494.16;;;22.86;30.63
10008;BME280;5043;41.766;26.204;2024-02-26T12:08:04;100487.44;;;22.97;30.22
10008;BME280;5043;41.766;26.204;2024-02-26T12:10:33;100490.41;;;22.81;30.55
10008;BME280;5043;41.766;26.204;2024-02-26T12:13:08;100476.03;;;22.95;30.16
10008;BME280;5043;41.766;26.204;2024-02-26T12:15:44;100477.81;;;23.43;29.74
10008;BME280;5043;41.766;26.204;2024-02-26T12:18:17;100473.13;;;23.24;30.09
10008;BME280;5043;41.766;26.204;2024-02-26T12:20:43;100475.38;;;23.20;30.18
10008;BME280;5043;41.766;26.204;2024-02-26T12:23:16;100473.25;;;23.37;30.44
10008;BME280;5043;41.766;26.204;2024-02-26T12:25:44;100478.00;;;23.82;30.03
10008;BME280;5043;41.766;26.204;2024-02-26T12:28:14;100477.13;;;24.29;28.98
10008;BME280;5043;41.766;26.204;2024-02-26T12:30:40;100484.03;;;24.65;28.71
10008;BME280;5043;41.766;26.204;2024-02-26T12:33:06;100473.06;;;25.05;28.19
10008;BME280;5043;41.766;26.204;2024-02-26T12:35:34;100486.69;;;25.43;27.37
10008;BME280;5043;41.766;26.204;2024-02-26T12:38:00;100486.09;;;25.41;27.16
10008;BME280;5043;41.766;26.204;2024-02-26T12:40:27;100482.13;;;25.50;26.96
10008;BME280;5043;41.766;26.204;2024-02-26T12:42:54;100456.25;;;25.03;27.51
10008;BME280;5043;41.766;26.204;2024-02-26T12:45:20;100473.84;;;25.19;27.24
10008;BME280;5043;41.766;26.204;2024-02-26T12:47:46;100482.81;;;24.93;27.60